createdAt,value
2022-12-14T00:02:10.787Z,10.40
2022-12-14T00:04:39.148Z,11.10
2022-12-14T00:07:07.497Z,10.30
2022-12-14T00:09:36.515Z,10.10
2022-12-14T00:12:05.487Z,11.50
2022-12-14T00:14:34.174Z,13.50
2022-12-14T00:17:02.391Z,11.40
2022-12-14T00:19:30.641Z,11.30
2022-12-14T00:21:58.929Z,13.80
2022-12-14T00:24:27.153Z,13.40
2022-12-14T00:26:55.524Z,14.40
2022-12-14T00:29:23.787Z,10.80
2022-12-14T00:31:52.147Z,9.90
2022-12-14T00:34:20.499Z,13.90
2022-12-14T00:36:48.783Z,12.70
2022-12-14T00:39:17.228Z,13.00
2022-12-14T00:41:45.531Z,14.00
2022-12-14T00:44:13.842Z,15.60
2022-12-14T00:46:42.248Z,14.80
2022-12-14T00:49:11.191Z,14.10
2022-12-14T00:51:39.514Z,15.80
2022-12-14T00:54:07.768Z,14.30
2022-12-14T00:56:36.287Z,14.10
2022-12-14T00:59:04.644Z,14.60
2022-12-14T01:01:33.091Z,12.60
2022-12-14T01:04:21.715Z,16.60
2022-12-14T01:06:52.026Z,14.40
2022-12-14T01:09:22.120Z,13.70
2022-12-14T01:11:50.666Z,11.90
2022-12-14T01:14:21.154Z,11.20
2022-12-14T01:16:49.454Z,11.20
2022-12-14T01:19:17.784Z,14.70
2022-12-14T01:21:46.276Z,14.60
2022-12-14T01:24:14.482Z,16.00
2022-12-14T01:26:42.826Z,11.40
2022-12-14T01:29:12.060Z,12.40
2022-12-14T01:31:40.403Z,11.30
2022-12-14T01:34:09.950Z,15.80
2022-12-14T01:36:39.555Z,12.20
2022-12-14T01:39:13.879Z,12.40
2022-12-14T01:41:52.996Z,12.60
2022-12-14T01:44:21.347Z,11.70
2022-12-14T01:47:22.823Z,11.80
2022-12-14T01:50:05.401Z,11.90
2022-12-14T01:52:36.499Z,11.90
2022-12-14T01:55:11.213Z,12.50
2022-12-14T01:57:47.058Z,10.50
2022-12-14T02:00:17.145Z,10.40
2022-12-14T02:02:54.818Z,11.30
2022-12-14T02:05:25.158Z,13.60
2022-12-14T02:07:56.619Z,12.90
2022-12-14T02:10:27.878Z,11.00
2022-12-14T02:13:05.803Z,11.00
2022-12-14T02:15:35.177Z,13.10
2022-12-14T02:18:06.126Z,11.70
2022-12-14T02:21:09.731Z,11.00
2022-12-14T02:23:47.358Z,15.70
2022-12-14T02:26:21.375Z,15.40
2022-12-14T02:29:02.010Z,11.70
2022-12-14T02:31:33.383Z,15.20
2022-12-14T02:34:34.055Z,14.10
2022-12-14T02:37:11.303Z,17.10
2022-12-14T02:40:00.920Z,14.90
2022-12-14T02:43:08.162Z,13.60
2022-12-14T02:45:50.726Z,13.70
2022-12-14T02:50:57.409Z,15.50
2022-12-14T02:53:39.325Z,16.60
2022-12-14T02:56:13.233Z,14.90
2022-12-14T02:58:51.156Z,14.30
2022-12-14T03:01:28.287Z,16.50
2022-12-14T03:03:56.721Z,13.60
2022-12-14T03:06:28.669Z,13.40
2022-12-14T03:09:04.963Z,14.90
2022-12-14T03:11:51.550Z,15.30
2022-12-14T03:14:27.460Z,12.90
2022-12-14T03:17:02.013Z,11.50
2022-12-14T03:19:38.223Z,12.90
2022-12-14T03:22:15.336Z,12.60
2022-12-14T03:24:49.150Z,15.50
2022-12-14T03:27:25.503Z,13.60
2022-12-14T03:30:00.838Z,14.60
2022-12-14T03:32:33.382Z,17.30
2022-12-14T03:35:06.971Z,12.30
2022-12-14T03:38:02.659Z,13.10
2022-12-14T03:40:37.363Z,13.00
2022-12-14T03:43:18.743Z,15.40
2022-12-14T03:46:10.254Z,13.10
2022-12-14T03:48:50.131Z,15.00
2022-12-14T03:51:38.044Z,14.10
2022-12-14T03:54:17.159Z,17.30
2022-12-14T03:57:20.847Z,14.30
2022-12-14T04:00:00.753Z,13.20
2022-12-14T04:02:42.786Z,16.20
2022-12-14T04:05:30.581Z,14.90
2022-12-14T04:08:11.632Z,15.60
2022-12-14T04:11:04.095Z,16.30
2022-12-14T04:13:57.201Z,13.80
2022-12-14T04:16:50.009Z,17.30
2022-12-14T04:19:29.426Z,17.00
2022-12-14T04:22:05.240Z,13.80
2022-12-14T04:24:58.945Z,15.20
2022-12-14T04:27:42.790Z,17.90
2022-12-14T04:30:13.591Z,18.30
2022-12-14T04:32:48.923Z,16.00
2022-12-14T04:35:26.239Z,16.70
2022-12-14T04:38:08.280Z,13.40
2022-12-14T04:40:47.622Z,15.00
2022-12-14T04:43:21.823Z,14.20
2022-12-14T04:46:01.336Z,16.00
2022-12-14T04:48:36.279Z,15.10
2022-12-14T04:51:23.636Z,15.00
2022-12-14T04:53:59.886Z,14.10
2022-12-14T04:56:53.913Z,15.90
2022-12-14T04:59:23.875Z,18.60
2022-12-14T05:02:15.531Z,15.60
2022-12-14T05:04:59.353Z,13.10
2022-12-14T05:07:38.360Z,15.10
2022-12-14T05:10:11.139Z,14.20
2022-12-14T05:12:47.607Z,14.90
2022-12-14T05:15:24.938Z,14.30
2022-12-14T05:17:53.786Z,12.50
2022-12-14T05:20:24.648Z,14.20
2022-12-14T05:22:53.095Z,15.50
2022-12-14T05:25:21.324Z,12.30
2022-12-14T05:27:49.610Z,14.50
2022-12-14T05:30:18.041Z,13.50
2022-12-14T05:32:46.632Z,15.60
2022-12-14T05:35:15.731Z,13.90
2022-12-14T05:37:44.304Z,15.40
2022-12-14T05:40:12.984Z,15.70
2022-12-14T05:42:45.360Z,16.40
2022-12-14T05:45:16.385Z,18.60
2022-12-14T05:47:45.299Z,16.40
2022-12-14T05:50:13.546Z,18.90
2022-12-14T05:52:41.787Z,19.20
2022-12-14T05:55:10.116Z,17.60
2022-12-14T05:57:38.608Z,17.00
2022-12-14T06:00:07.713Z,19.10
2022-12-14T06:02:36.065Z,18.20
2022-12-14T06:05:04.958Z,18.90
2022-12-14T06:07:33.287Z,19.50
2022-12-14T06:10:01.544Z,21.80
2022-12-14T06:12:30.573Z,24.20
2022-12-14T06:14:59.000Z,19.70
2022-12-14T06:17:27.279Z,19.70
2022-12-14T06:19:55.544Z,27.50
2022-12-14T06:22:24.975Z,27.00
2022-12-14T06:24:53.246Z,24.10
2022-12-14T06:27:21.511Z,21.10
2022-12-14T06:29:49.863Z,21.80
2022-12-14T06:32:18.353Z,24.30
2022-12-14T06:34:47.038Z,24.40
2022-12-14T06:37:15.378Z,22.50
2022-12-14T06:39:43.722Z,25.10
2022-12-14T06:42:11.995Z,27.60
2022-12-14T06:44:40.381Z,23.80
2022-12-14T06:47:09.044Z,22.90
2022-12-14T06:49:37.398Z,24.80
2022-12-14T06:52:05.708Z,21.30
2022-12-14T06:54:34.158Z,24.40
2022-12-14T06:57:02.536Z,29.00
2022-12-14T06:59:30.767Z,28.70
2022-12-14T07:01:59.334Z,25.70
2022-12-14T07:04:28.091Z,25.90
2022-12-14T07:06:56.624Z,27.70
2022-12-14T07:09:25.120Z,31.60
2022-12-14T07:11:53.503Z,29.00
2022-12-14T07:14:21.901Z,26.00
2022-12-14T07:16:50.306Z,27.90
2022-12-14T07:19:18.914Z,26.30
2022-12-14T07:21:47.218Z,23.70
2022-12-14T07:24:16.427Z,30.30
2022-12-14T07:26:44.808Z,28.10
2022-12-14T07:29:15.095Z,28.10
2022-12-14T07:31:43.936Z,29.40
2022-12-14T07:34:18.157Z,28.40
2022-12-14T07:36:50.846Z,28.20
2022-12-14T07:39:20.922Z,24.30
2022-12-14T07:41:50.750Z,24.30
2022-12-14T07:44:22.390Z,22.00
2022-12-14T07:46:51.074Z,23.90
2022-12-14T07:49:19.422Z,25.70
2022-12-14T07:51:47.797Z,26.30
2022-12-14T07:54:16.109Z,23.00
2022-12-14T07:56:44.699Z,25.20
2022-12-14T07:59:15.968Z,24.10
2022-12-14T08:01:45.122Z,26.30
2022-12-14T08:04:16.775Z,28.30
2022-12-14T08:06:47.037Z,26.30
2022-12-14T08:09:16.721Z,25.70
2022-12-14T08:11:45.249Z,31.20
2022-12-14T08:14:17.467Z,28.90
2022-12-14T08:16:47.329Z,26.90
2022-12-14T08:19:16.969Z,28.10
2022-12-14T08:21:45.965Z,32.60
2022-12-14T08:24:15.382Z,26.90
2022-12-14T08:26:47.284Z,28.80
2022-12-14T08:29:19.277Z,27.10
2022-12-14T08:31:47.979Z,24.40
2022-12-14T08:34:22.959Z,26.30
2022-12-14T08:36:51.449Z,27.50
2022-12-14T08:39:19.823Z,23.40
2022-12-14T08:41:48.137Z,28.10
2022-12-14T08:44:17.587Z,26.50
2022-12-14T08:46:46.165Z,27.10
2022-12-14T08:49:14.524Z,29.00
2022-12-14T08:51:42.911Z,24.80
2022-12-14T08:54:11.414Z,28.10
2022-12-14T08:56:39.879Z,29.10
2022-12-14T08:59:08.410Z,27.90
2022-12-14T09:01:37.316Z,25.30
2022-12-14T09:04:08.069Z,27.60
2022-12-14T09:06:39.339Z,24.00
2022-12-14T09:09:15.638Z,24.70
2022-12-14T09:11:45.338Z,27.40
2022-12-14T09:14:13.956Z,33.20
2022-12-14T09:16:42.511Z,26.80
2022-12-14T09:19:10.954Z,28.60
2022-12-14T09:21:40.030Z,23.00
2022-12-14T09:24:09.759Z,24.00
2022-12-14T09:26:38.072Z,23.60
2022-12-14T09:29:06.497Z,26.00
2022-12-14T09:31:35.000Z,24.60
2022-12-14T09:34:04.133Z,25.60
2022-12-14T09:36:32.834Z,27.60
2022-12-14T09:39:01.251Z,24.70
2022-12-14T09:41:35.716Z,28.10
2022-12-14T09:44:25.794Z,26.20
2022-12-14T09:47:11.080Z,24.50
2022-12-14T09:49:48.945Z,25.20
2022-12-14T09:52:22.942Z,25.80
2022-12-14T09:54:52.553Z,25.00
2022-12-14T09:57:38.212Z,25.80
2022-12-14T10:00:20.068Z,28.20
2022-12-14T10:03:07.152Z,27.30
2022-12-14T10:05:53.907Z,25.70
2022-12-14T10:08:31.973Z,28.00
2022-12-14T10:11:16.219Z,29.50
2022-12-14T10:14:23.045Z,28.10
2022-12-14T10:17:12.369Z,31.60
2022-12-14T10:19:51.791Z,28.40
2022-12-14T10:22:24.151Z,34.10
2022-12-14T10:27:53.947Z,32.30
2022-12-14T10:30:24.028Z,34.30
2022-12-14T10:33:01.432Z,36.90
2022-12-14T10:35:53.739Z,37.30
2022-12-14T10:38:29.704Z,39.80
2022-12-14T10:41:07.488Z,34.10
2022-12-14T10:43:54.242Z,36.30
2022-12-14T10:46:28.826Z,35.00
2022-12-14T10:49:22.396Z,35.30
2022-12-14T10:52:02.660Z,37.50
2022-12-14T10:54:39.095Z,38.40
2022-12-14T10:57:07.717Z,35.90
2022-12-14T10:59:43.818Z,35.70
2022-12-14T11:02:22.915Z,35.30
2022-12-14T11:04:52.796Z,36.70
2022-12-14T11:07:43.605Z,37.20
2022-12-14T11:10:20.109Z,37.70
2022-12-14T11:13:07.697Z,37.70
2022-12-14T11:15:45.461Z,37.80
2022-12-14T11:18:17.037Z,36.40
2022-12-14T11:20:53.209Z,42.80
2022-12-14T11:23:29.361Z,39.80
2022-12-14T11:26:00.818Z,35.90
2022-12-14T11:28:41.575Z,36.10
2022-12-14T11:31:28.253Z,37.40
2022-12-14T11:33:59.083Z,40.00
2022-12-14T11:36:39.069Z,35.30
2022-12-14T11:39:22.192Z,34.70
2022-12-14T11:42:04.389Z,36.10
2022-12-14T11:44:36.336Z,36.20
2022-12-14T11:47:14.251Z,36.30
2022-12-14T11:49:42.408Z,31.90
2022-12-14T11:52:15.564Z,36.10
2022-12-14T11:54:54.309Z,36.10
2022-12-14T11:57:34.173Z,35.80
2022-12-14T12:00:23.911Z,34.40
2022-12-14T12:03:06.646Z,38.20
2022-12-14T12:05:41.200Z,35.40
2022-12-14T12:08:32.183Z,35.60
2022-12-14T12:11:04.418Z,37.40
2022-12-14T12:13:40.116Z,37.50
2022-12-14T12:16:23.127Z,38.00
2022-12-14T12:19:12.049Z,35.90
2022-12-14T12:21:43.891Z,32.60
2022-12-14T12:24:26.437Z,34.40
2022-12-14T12:27:00.913Z,32.30
2022-12-14T12:29:38.192Z,34.60
2022-12-14T12:32:31.165Z,35.80
2022-12-14T12:35:11.874Z,32.20
2022-12-14T12:37:53.156Z,32.50
2022-12-14T12:40:40.509Z,32.30
2022-12-14T12:43:19.269Z,30.20
2022-12-14T12:46:00.187Z,32.20
2022-12-14T12:48:51.564Z,33.70
2022-12-14T12:51:25.405Z,29.90
2022-12-14T12:54:01.751Z,30.50
2022-12-14T12:56:43.716Z,32.00
2022-12-14T12:59:38.543Z,33.10
2022-12-14T13:02:28.995Z,31.20
2022-12-14T13:05:16.625Z,31.60
2022-12-14T13:13:09.969Z,32.40
2022-12-14T13:15:43.481Z,34.10
2022-12-14T13:18:33.858Z,33.20
2022-12-14T13:21:13.164Z,31.10
2022-12-14T13:23:45.538Z,30.70
2022-12-14T13:26:57.167Z,32.80
2022-12-14T13:29:56.288Z,29.70
2022-12-14T13:32:40.993Z,34.40
2022-12-14T13:35:27.616Z,31.40
2022-12-14T13:38:17.731Z,31.80
2022-12-14T13:41:14.186Z,31.10
2022-12-14T13:44:35.908Z,30.20
2022-12-14T13:47:15.624Z,28.00
2022-12-14T13:52:50.038Z,31.00
2022-12-14T13:55:28.246Z,31.00
2022-12-14T13:58:34.467Z,31.30
2022-12-14T14:01:07.461Z,30.50
2022-12-14T14:03:35.957Z,30.70
2022-12-14T14:06:23.303Z,34.20
2022-12-14T14:08:53.002Z,36.30
2022-12-14T14:11:40.003Z,35.20
2022-12-14T14:14:17.281Z,33.80
2022-12-14T14:16:51.281Z,29.60
2022-12-14T14:19:25.533Z,35.30
2022-12-14T14:22:26.534Z,31.00
2022-12-14T14:24:58.644Z,29.40
2022-12-14T14:27:39.615Z,31.20
2022-12-14T14:30:30.115Z,32.30
2022-12-14T14:33:35.760Z,38.20
2022-12-14T14:35:49.796Z,38.80
2022-12-14T14:38:32.581Z,35.80
2022-12-14T14:43:51.765Z,36.20
2022-12-14T14:46:23.323Z,33.60
2022-12-14T14:48:54.605Z,36.30
2022-12-14T14:51:32.912Z,38.50
2022-12-14T14:57:35.388Z,41.60
2022-12-14T15:00:06.446Z,37.60
2022-12-14T15:02:42.146Z,34.00
2022-12-14T15:08:39.527Z,37.20
2022-12-14T15:11:20.781Z,38.70
2022-12-14T15:13:57.740Z,37.50
2022-12-14T15:16:41.050Z,37.00
2022-12-14T15:19:21.422Z,37.40
2022-12-14T15:22:15.111Z,36.40
2022-12-14T15:24:45.712Z,39.30
2022-12-14T15:27:30.334Z,38.90
2022-12-14T15:30:10.849Z,37.60
2022-12-14T15:32:47.592Z,37.10
2022-12-14T15:35:25.342Z,39.40
2022-12-14T15:38:00.228Z,40.10
2022-12-14T15:40:31.092Z,38.50
2022-12-14T15:43:16.168Z,34.20
2022-12-14T15:45:48.892Z,35.40
2022-12-14T15:48:34.467Z,41.00
2022-12-14T15:51:17.097Z,41.00
2022-12-14T15:53:49.940Z,41.80
2022-12-14T15:56:22.182Z,42.30
2022-12-14T15:58:52.591Z,42.80
2022-12-14T16:01:36.303Z,41.60
2022-12-14T16:04:10.182Z,43.90
2022-12-14T16:07:08.103Z,45.50
2022-12-14T16:09:44.333Z,48.30
2022-12-14T16:12:44.185Z,48.90
2022-12-14T16:15:24.484Z,50.00
2022-12-14T16:18:02.154Z,54.70
2022-12-14T16:20:38.307Z,50.20
2022-12-14T16:23:29.064Z,48.00
2022-12-14T16:26:17.944Z,49.60
2022-12-14T16:28:48.330Z,46.00
2022-12-14T16:31:22.580Z,44.10
2022-12-14T16:34:18.994Z,55.60
2022-12-14T16:37:14.540Z,45.10
2022-12-14T16:39:40.080Z,48.50
2022-12-14T16:42:19.747Z,44.20
2022-12-14T16:44:49.241Z,43.60
2022-12-14T16:47:26.318Z,41.60
2022-12-14T16:50:01.836Z,42.90
2022-12-14T16:52:32.755Z,44.50
2022-12-14T16:55:15.426Z,46.50
2022-12-14T16:58:02.018Z,46.30
2022-12-14T17:00:34.940Z,48.40
2022-12-14T17:03:07.916Z,43.90
2022-12-14T17:05:42.070Z,42.70
2022-12-14T17:08:11.979Z,34.80
2022-12-14T17:10:40.301Z,41.90
2022-12-14T17:13:09.584Z,46.40
2022-12-14T17:16:01.196Z,49.60
2022-12-14T17:18:38.413Z,46.40
2022-12-14T17:21:11.567Z,47.30
2022-12-14T17:23:42.883Z,48.00
2022-12-14T17:26:21.028Z,57.40
2022-12-14T17:28:50.443Z,52.10
2022-12-14T17:31:25.727Z,46.00
2022-12-14T17:33:57.173Z,48.70
2022-12-14T17:36:25.818Z,48.70
2022-12-14T17:38:54.515Z,47.60
2022-12-14T17:41:27.092Z,53.90
2022-12-14T17:43:57.268Z,52.60
2022-12-14T17:46:26.197Z,50.80
2022-12-14T17:48:55.325Z,54.70
2022-12-14T17:51:30.390Z,57.10
2022-12-14T17:54:00.530Z,51.90
2022-12-14T17:56:30.141Z,55.10
2022-12-14T17:58:58.660Z,53.50
2022-12-14T18:01:28.061Z,53.50
2022-12-14T18:03:57.634Z,53.00
2022-12-14T18:06:26.380Z,48.00
2022-12-14T18:08:54.692Z,56.70
2022-12-14T18:11:24.677Z,57.40
2022-12-14T18:13:54.195Z,52.10
2022-12-14T18:16:24.805Z,56.00
2022-12-14T18:18:55.133Z,54.80
2022-12-14T18:21:29.530Z,49.50
2022-12-14T18:23:58.567Z,58.40
2022-12-14T18:26:27.581Z,55.20
2022-12-14T18:28:58.259Z,58.40
2022-12-14T18:31:38.296Z,54.60
2022-12-14T18:34:06.872Z,53.80
2022-12-14T18:36:35.480Z,57.50
2022-12-14T18:39:04.735Z,56.90
2022-12-14T18:41:33.898Z,56.80
2022-12-14T18:44:02.981Z,61.40
2022-12-14T18:46:31.684Z,63.60
2022-12-14T18:49:01.135Z,58.10
2022-12-14T18:51:30.456Z,60.20
2022-12-14T18:54:00.517Z,56.60
2022-12-14T18:56:29.691Z,64.10
2022-12-14T18:59:00.541Z,59.50
2022-12-14T19:01:29.181Z,62.10
2022-12-14T19:03:57.827Z,56.40
2022-12-14T19:09:15.535Z,57.60
2022-12-14T19:11:44.634Z,55.30
2022-12-14T19:14:13.298Z,52.80
2022-12-14T19:16:41.741Z,57.30
2022-12-14T19:19:10.068Z,58.70
2022-12-14T19:21:38.360Z,57.20
2022-12-14T19:24:08.742Z,56.80
2022-12-14T19:26:39.144Z,59.90
2022-12-14T19:29:07.689Z,59.00
2022-12-14T19:31:36.306Z,63.10
2022-12-14T19:34:04.932Z,68.00
2022-12-14T19:36:33.645Z,63.60
2022-12-14T19:39:02.906Z,65.90
2022-12-14T19:41:31.378Z,60.70
2022-12-14T19:43:59.911Z,64.00
2022-12-14T19:46:28.283Z,66.60
2022-12-14T19:48:57.652Z,65.20
2022-12-14T19:51:26.118Z,63.40
2022-12-14T19:53:54.821Z,65.00
2022-12-14T19:56:23.283Z,73.60
2022-12-14T19:58:51.787Z,67.50
2022-12-14T20:01:20.339Z,68.30
2022-12-14T20:03:49.585Z,69.70
2022-12-14T20:06:18.066Z,72.80
2022-12-14T20:08:49.365Z,75.10
2022-12-14T20:11:18.121Z,68.20
2022-12-14T20:13:47.679Z,65.20
2022-12-14T20:16:19.097Z,56.90
2022-12-14T20:18:48.159Z,64.70
2022-12-14T20:21:22.207Z,67.80
2022-12-14T20:23:51.417Z,67.60
2022-12-14T20:26:21.689Z,66.10
2022-12-14T20:28:53.407Z,70.60
2022-12-14T20:31:22.971Z,68.50
2022-12-14T20:33:52.325Z,70.00
2022-12-14T20:37:12.334Z,71.30
2022-12-14T20:39:40.822Z,74.00
2022-12-14T20:42:09.136Z,71.70
2022-12-14T20:44:37.634Z,71.90
2022-12-14T20:47:06.488Z,77.00
2022-12-14T20:49:34.915Z,64.00
2022-12-14T20:52:03.375Z,71.00
2022-12-14T20:54:32.176Z,71.90
2022-12-14T20:57:00.507Z,73.70
2022-12-14T20:59:28.979Z,79.30
2022-12-14T21:01:57.565Z,69.60
2022-12-14T21:04:26.526Z,62.20
2022-12-14T21:06:54.967Z,68.40
2022-12-14T21:09:23.318Z,80.20
2022-12-14T21:12:10.685Z,70.90
2022-12-14T21:14:48.012Z,70.40
2022-12-14T21:17:16.828Z,76.10
2022-12-14T21:19:45.322Z,75.20
2022-12-14T21:22:22.803Z,71.70
2022-12-14T21:25:07.633Z,72.30
2022-12-14T21:27:38.761Z,69.90
2022-12-14T21:30:10.269Z,70.30
2022-12-14T21:32:39.031Z,78.40
2022-12-14T21:35:07.746Z,68.30
2022-12-14T21:37:38.153Z,68.90
2022-12-14T21:40:07.364Z,72.20
2022-12-14T21:42:35.683Z,69.60
2022-12-14T21:45:04.988Z,65.00
2022-12-14T21:47:33.874Z,65.60
2022-12-14T21:50:02.318Z,70.70
2022-12-14T21:52:30.973Z,65.80
2022-12-14T21:54:59.995Z,69.00
2022-12-14T21:57:50.244Z,72.00
2022-12-14T22:00:19.815Z,71.10
2022-12-14T22:02:48.631Z,71.30
2022-12-14T22:05:17.661Z,73.70
2022-12-14T22:07:46.969Z,69.00
2022-12-14T22:10:17.741Z,70.60
2022-12-14T22:12:49.727Z,73.20
2022-12-14T22:15:18.158Z,68.70
2022-12-14T22:17:46.449Z,69.20
2022-12-14T22:20:14.928Z,77.90
2022-12-14T22:22:43.610Z,70.10
2022-12-14T22:25:11.933Z,70.90
2022-12-14T22:27:40.349Z,73.80
2022-12-14T22:30:09.527Z,70.80
2022-12-14T22:32:37.804Z,75.00
2022-12-14T22:35:06.453Z,74.60
2022-12-14T22:37:35.064Z,78.70
2022-12-14T22:40:04.401Z,67.50
2022-12-14T22:42:34.195Z,68.60
2022-12-14T22:45:02.878Z,78.20
2022-12-14T22:47:31.329Z,76.10
2022-12-14T22:49:59.591Z,75.80
2022-12-14T22:52:28.099Z,78.50
2022-12-14T22:54:56.604Z,73.70
2022-12-14T22:57:25.376Z,82.60
2022-12-14T23:00:00.774Z,83.80
2022-12-14T23:02:31.086Z,99.10
2022-12-14T23:04:59.606Z,101.50
2022-12-14T23:07:27.977Z,85.90
2022-12-14T23:10:15.794Z,82.70
2022-12-14T23:13:03.400Z,82.80
2022-12-14T23:15:50.551Z,82.20
2022-12-14T23:18:37.959Z,82.70
2022-12-14T23:21:29.536Z,80.60
2022-12-14T23:24:16.676Z,82.50
2022-12-14T23:27:09.119Z,94.00
2022-12-14T23:29:56.737Z,91.20
2022-12-14T23:32:43.588Z,96.50
2022-12-14T23:35:30.673Z,87.60
2022-12-14T23:38:25.348Z,89.50
2022-12-14T23:41:17.944Z,95.70
2022-12-14T23:57:28.042Z,83.10
